sensor_id;sensor_type;location;lat;lon;timestamp;P1;durP1;ratioP1;P2;durP2;ratioP2
31764;SDS011;18338;53.240;8.798;2024-02-04T00:01:31;5.03;;;1.90;;
31764;SDS011;18338;53.240;8.798;2024-02-04T00:03:59;4.55;;;1.73;;
31764;SDS011;18338;53.240;8.798;2024-02-04T00:06:26;6.72;;;1.73;;
31764;SDS011;18338;53.240;8.798;2024-02-04T00:08:53;7.22;;;1.80;;
31764;SDS011;18338;53.240;8.798;2024-02-04T00:11:19;7.43;;;1.95;;
31764;SDS011;18338;53.240;8.798;2024-02-04T00:13:46;8.02;;;2.25;;
31764;SDS011;18338;53.240;8.798;2024-02-04T00:16:13;7.85;;;2.63;;
31764;SDS011;18338;53.240;8.798;2024-02-04T00:18:40;7.85;;;2.05;;
31764;SDS011;18338;53.240;8.798;2024-02-04T00:21:06;8.38;;;2.38;;
31764;SDS011;18338;53.240;8.798;2024-02-04T00:23:33;6.00;;;1.90;;
31764;SDS011;18338;53.240;8.798;2024-02-04T00:26:00;7.22;;;2.10;;
31764;SDS011;18338;53.240;8.798;2024-02-04T00:28:26;5.72;;;1.98;;
31764;SDS011;18338;53.240;8.798;2024-02-04T00:30:56;6.57;;;2.30;;
31764;SDS011;18338;53.240;8.798;2024-02-04T00:33:25;9.65;;;2.53;;
31764;SDS011;18338;53.240;8.798;2024-02-04T00:35:52;8.32;;;2.25;;
31764;SDS011;18338;53.240;8.798;2024-02-04T00:38:18;6.65;;;1.77;;
31764;SDS011;18338;53.240;8.798;2024-02-04T00:40:45;10.68;;;2.90;;
31764;SDS011;18338;53.240;8.798;2024-02-04T00:43:12;5.53;;;2.60;;
31764;SDS011;18338;53.240;8.798;2024-02-04T00:45:38;5.35;;;2.00;;
31764;SDS011;18338;53.240;8.798;2024-02-04T00:48:05;6.68;;;1.85;;
31764;SDS011;18338;53.240;8.798;2024-02-04T00:50:32;7.93;;;1.80;;
31764;SDS011;18338;53.240;8.798;2024-02-04T00:52:58;9.05;;;1.98;;
31764;SDS011;18338;53.240;8.798;2024-02-04T00:55:25;9.50;;;2.42;;
31764;SDS011;18338;53.240;8.798;2024-02-04T00:57:52;7.45;;;2.50;;
31764;SDS011;18338;53.240;8.798;2024-02-04T01:00:19;4.78;;;2.08;;
31764;SDS011;18338;53.240;8.798;2024-02-04T01:02:45;8.10;;;2.13;;
31764;SDS011;18338;53.240;8.798;2024-02-04T01:05:12;6.00;;;2.50;;
31764;SDS011;18338;53.240;8.798;2024-02-04T01:07:40;6.78;;;2.72;;
31764;SDS011;18338;53.240;8.798;2024-02-04T01:10:07;10.68;;;2.60;;
31764;SDS011;18338;53.240;8.798;2024-02-04T01:12:35;9.18;;;2.63;;
31764;SDS011;18338;53.240;8.798;2024-02-04T01:15:02;12.00;;;3.40;;
31764;SDS011;18338;53.240;8.798;2024-02-04T01:17:31;7.78;;;3.05;;
31764;SDS011;18338;53.240;8.798;2024-02-04T01:20:00;6.82;;;2.30;;
31764;SDS011;18338;53.240;8.798;2024-02-04T01:22:27;12.00;;;2.80;;
31764;SDS011;18338;53.240;8.798;2024-02-04T01:24:54;8.95;;;2.45;;
31764;SDS011;18338;53.240;8.798;2024-02-04T01:27:20;9.45;;;2.97;;
31764;SDS011;18338;53.240;8.798;2024-02-04T01:29:47;6.70;;;2.50;;
31764;SDS011;18338;53.240;8.798;2024-02-04T01:32:14;9.18;;;2.92;;
31764;SDS011;18338;53.240;8.798;2024-02-04T01:34:40;7.82;;;2.80;;
31764;SDS011;18338;53.240;8.798;2024-02-04T01:37:07;9.30;;;3.22;;
31764;SDS011;18338;53.240;8.798;2024-02-04T01:39:34;8.60;;;3.38;;
31764;SDS011;18338;53.240;8.798;2024-02-04T01:42:01;10.90;;;3.92;;
31764;SDS011;18338;53.240;8.798;2024-02-04T01:44:29;10.75;;;3.45;;
31764;SDS011;18338;53.240;8.798;2024-02-04T01:46:55;9.68;;;3.78;;
31764;SDS011;18338;53.240;8.798;2024-02-04T01:49:23;8.50;;;3.78;;
31764;SDS011;18338;53.240;8.798;2024-02-04T01:51:51;12.43;;;4.05;;
31764;SDS011;18338;53.240;8.798;2024-02-04T01:54:19;12.82;;;4.32;;
31764;SDS011;18338;53.240;8.798;2024-02-04T01:56:49;6.97;;;3.80;;
31764;SDS011;18338;53.240;8.798;2024-02-04T01:59:18;11.55;;;4.65;;
31764;SDS011;18338;53.240;8.798;2024-02-04T02:01:46;12.13;;;5.07;;
31764;SDS011;18338;53.240;8.798;2024-02-04T02:04:14;9.68;;;4.90;;
31764;SDS011;18338;53.240;8.798;2024-02-04T02:06:40;14.13;;;5.85;;
31764;SDS011;18338;53.240;8.798;2024-02-04T02:09:09;9.90;;;4.95;;
31764;SDS011;18338;53.240;8.798;2024-02-04T02:11:39;11.20;;;4.25;;
31764;SDS011;18338;53.240;8.798;2024-02-04T02:14:09;12.18;;;4.88;;
31764;SDS011;18338;53.240;8.798;2024-02-04T02:16:40;12.45;;;5.57;;
31764;SDS011;18338;53.240;8.798;2024-02-04T02:19:17;11.02;;;5.25;;
31764;SDS011;18338;53.240;8.798;2024-02-04T02:22:04;11.18;;;5.93;;
31764;SDS011;18338;53.240;8.798;2024-02-04T02:24:41;9.98;;;5.72;;
31764;SDS011;18338;53.240;8.798;2024-02-04T02:27:08;13.88;;;5.88;;
31764;SDS011;18338;53.240;8.798;2024-02-04T02:29:35;12.23;;;6.38;;
31764;SDS011;18338;53.240;8.798;2024-02-04T02:32:02;12.40;;;5.85;;
31764;SDS011;18338;53.240;8.798;2024-02-04T02:34:30;9.50;;;5.75;;
31764;SDS011;18338;53.240;8.798;2024-02-04T02:40:09;13.07;;;6.53;;
31764;SDS011;18338;53.240;8.798;2024-02-04T02:42:46;13.43;;;6.35;;
31764;SDS011;18338;53.240;8.798;2024-02-04T02:45:14;14.52;;;7.28;;
31764;SDS011;18338;53.240;8.798;2024-02-04T02:47:42;11.50;;;5.63;;
31764;SDS011;18338;53.240;8.798;2024-02-04T02:50:12;14.25;;;6.20;;
31764;SDS011;18338;53.240;8.798;2024-02-04T02:52:40;13.80;;;6.65;;
31764;SDS011;18338;53.240;8.798;2024-02-04T02:55:07;14.20;;;6.72;;
31764;SDS011;18338;53.240;8.798;2024-02-04T02:57:34;14.15;;;7.35;;
31764;SDS011;18338;53.240;8.798;2024-02-04T03:00:01;14.65;;;6.65;;
31764;SDS011;18338;53.240;8.798;2024-02-04T03:02:29;11.57;;;5.95;;
31764;SDS011;18338;53.240;8.798;2024-02-04T03:04:56;13.80;;;6.65;;
31764;SDS011;18338;53.240;8.798;2024-02-04T03:07:22;13.80;;;6.18;;
31764;SDS011;18338;53.240;8.798;2024-02-04T03:09:49;14.15;;;6.40;;
31764;SDS011;18338;53.240;8.798;2024-02-04T03:12:16;21.45;;;7.50;;
31764;SDS011;18338;53.240;8.798;2024-02-04T03:14:43;15.80;;;6.63;;
31764;SDS011;18338;53.240;8.798;2024-02-04T03:17:09;11.77;;;6.00;;
31764;SDS011;18338;53.240;8.798;2024-02-04T03:19:37;10.85;;;5.95;;
31764;SDS011;18338;53.240;8.798;2024-02-04T03:22:04;11.82;;;5.75;;
31764;SDS011;18338;53.240;8.798;2024-02-04T03:24:31;10.35;;;5.35;;
31764;SDS011;18338;53.240;8.798;2024-02-04T03:26:58;10.93;;;5.43;;
31764;SDS011;18338;53.240;8.798;2024-02-04T03:29:24;13.88;;;5.35;;
31764;SDS011;18338;53.240;8.798;2024-02-04T03:31:51;13.18;;;4.90;;
31764;SDS011;18338;53.240;8.798;2024-02-04T03:34:18;13.18;;;4.80;;
31764;SDS011;18338;53.240;8.798;2024-02-04T03:36:45;10.18;;;3.90;;
31764;SDS011;18338;53.240;8.798;2024-02-04T03:39:11;11.45;;;5.05;;
31764;SDS011;18338;53.240;8.798;2024-02-04T03:41:38;11.68;;;5.32;;
31764;SDS011;18338;53.240;8.798;2024-02-04T03:44:05;12.93;;;5.30;;
31764;SDS011;18338;53.240;8.798;2024-02-04T03:46:31;15.88;;;4.95;;
31764;SDS011;18338;53.240;8.798;2024-02-04T03:48:58;11.32;;;3.85;;
31764;SDS011;18338;53.240;8.798;2024-02-04T03:51:25;13.18;;;4.65;;
31764;SDS011;18338;53.240;8.798;2024-02-04T03:53:52;12.35;;;5.13;;
31764;SDS011;18338;53.240;8.798;2024-02-04T03:56:19;10.88;;;5.13;;
31764;SDS011;18338;53.240;8.798;2024-02-04T03:58:45;12.52;;;4.40;;
31764;SDS011;18338;53.240;8.798;2024-02-04T04:01:12;13.48;;;4.40;;
31764;SDS011;18338;53.240;8.798;2024-02-04T04:03:43;7.93;;;4.32;;
31764;SDS011;18338;53.240;8.798;2024-02-04T04:06:10;11.02;;;3.60;;
31764;SDS011;18338;53.240;8.798;2024-02-04T04:08:37;11.30;;;3.38;;
31764;SDS011;18338;53.240;8.798;2024-02-04T04:11:05;8.38;;;3.78;;
31764;SDS011;18338;53.240;8.798;2024-02-04T04:13:33;9.15;;;3.40;;
31764;SDS011;18338;53.240;8.798;2024-02-04T04:16:02;18.05;;;3.72;;
31764;SDS011;18338;53.240;8.798;2024-02-04T04:18:29;12.18;;;3.75;;
31764;SDS011;18338;53.240;8.798;2024-02-04T04:20:56;12.02;;;3.20;;
31764;SDS011;18338;53.240;8.798;2024-02-04T04:23:23;8.65;;;3.58;;
31764;SDS011;18338;53.240;8.798;2024-02-04T04:25:50;9.85;;;3.28;;
31764;SDS011;18338;53.240;8.798;2024-02-04T04:28:16;10.82;;;2.95;;
31764;SDS011;18338;53.240;8.798;2024-02-04T04:30:43;12.32;;;2.67;;
31764;SDS011;18338;53.240;8.798;2024-02-04T04:33:10;9.35;;;2.88;;
31764;SDS011;18338;53.240;8.798;2024-02-04T04:35:38;7.60;;;3.22;;
31764;SDS011;18338;53.240;8.798;2024-02-04T04:38:05;10.50;;;2.88;;
31764;SDS011;18338;53.240;8.798;2024-02-04T04:40:32;7.72;;;2.60;;
31764;SDS011;18338;53.240;8.798;2024-02-04T04:42:59;7.85;;;2.67;;
31764;SDS011;18338;53.240;8.798;2024-02-04T04:45:26;9.55;;;2.90;;
31764;SDS011;18338;53.240;8.798;2024-02-04T04:47:52;5.95;;;2.13;;
31764;SDS011;18338;53.240;8.798;2024-02-04T04:50:19;8.35;;;2.10;;
31764;SDS011;18338;53.240;8.798;2024-02-04T04:52:46;8.15;;;2.15;;
31764;SDS011;18338;53.240;8.798;2024-02-04T04:55:12;8.85;;;2.33;;
31764;SDS011;18338;53.240;8.798;2024-02-04T04:57:39;8.10;;;1.90;;
31764;SDS011;18338;53.240;8.798;2024-02-04T05:00:06;8.52;;;2.20;;
31764;SDS011;18338;53.240;8.798;2024-02-04T05:02:36;11.00;;;2.65;;
31764;SDS011;18338;53.240;8.798;2024-02-04T05:05:03;9.02;;;2.22;;
31764;SDS011;18338;53.240;8.798;2024-02-04T05:07:30;5.50;;;1.52;;
31764;SDS011;18338;53.240;8.798;2024-02-04T05:09:57;5.82;;;1.83;;
31764;SDS011;18338;53.240;8.798;2024-02-04T05:12:24;9.18;;;2.22;;
31764;SDS011;18338;53.240;8.798;2024-02-04T05:14:51;8.13;;;2.22;;
31764;SDS011;18338;53.240;8.798;2024-02-04T05:17:18;11.88;;;2.15;;
31764;SDS011;18338;53.240;8.798;2024-02-04T05:19:45;8.55;;;2.20;;
31764;SDS011;18338;53.240;8.798;2024-02-04T05:22:11;8.80;;;2.00;;
31764;SDS011;18338;53.240;8.798;2024-02-04T05:24:38;6.32;;;2.28;;
31764;SDS011;18338;53.240;8.798;2024-02-04T05:27:05;5.18;;;1.60;;
31764;SDS011;18338;53.240;8.798;2024-02-04T05:29:32;7.90;;;1.73;;
31764;SDS011;18338;53.240;8.798;2024-02-04T05:31:59;6.32;;;2.05;;
31764;SDS011;18338;53.240;8.798;2024-02-04T05:34:26;6.90;;;1.90;;
31764;SDS011;18338;53.240;8.798;2024-02-04T05:36:53;7.65;;;2.25;;
31764;SDS011;18338;53.240;8.798;2024-02-04T05:39:19;8.40;;;1.85;;
31764;SDS011;18338;53.240;8.798;2024-02-04T05:41:46;7.40;;;1.58;;
31764;SDS011;18338;53.240;8.798;2024-02-04T05:44:13;12.20;;;1.90;;
31764;SDS011;18338;53.240;8.798;2024-02-04T05:46:40;9.98;;;2.05;;
31764;SDS011;18338;53.240;8.798;2024-02-04T05:49:07;7.68;;;2.08;;
31764;SDS011;18338;53.240;8.798;2024-02-04T05:51:38;8.52;;;2.08;;
31764;SDS011;18338;53.240;8.798;2024-02-04T05:54:08;7.55;;;1.52;;
31764;SDS011;18338;53.240;8.798;2024-02-04T05:56:35;7.30;;;1.42;;
31764;SDS011;18338;53.240;8.798;2024-02-04T05:59:02;9.45;;;2.38;;
31764;SDS011;18338;53.240;8.798;2024-02-04T06:01:29;8.10;;;1.45;;
31764;SDS011;18338;53.240;8.798;2024-02-04T06:03:56;6.90;;;1.73;;
31764;SDS011;18338;53.240;8.798;2024-02-04T06:06:23;6.70;;;1.75;;
31764;SDS011;18338;53.240;8.798;2024-02-04T06:08:50;8.48;;;1.63;;
31764;SDS011;18338;53.240;8.798;2024-02-04T06:11:18;7.40;;;2.17;;
31764;SDS011;18338;53.240;8.798;2024-02-04T06:13:44;7.70;;;2.10;;
31764;SDS011;18338;53.240;8.798;2024-02-04T06:16:12;8.65;;;1.77;;
31764;SDS011;18338;53.240;8.798;2024-02-04T06:18:39;9.68;;;1.50;;
31764;SDS011;18338;53.240;8.798;2024-02-04T06:21:07;9.90;;;2.13;;
31764;SDS011;18338;53.240;8.798;2024-02-04T06:23:34;5.32;;;1.20;;
31764;SDS011;18338;53.240;8.798;2024-02-04T06:26:01;5.43;;;1.52;;
31764;SDS011;18338;53.240;8.798;2024-02-04T06:28:27;6.15;;;1.40;;
31764;SDS011;18338;53.240;8.798;2024-02-04T06:30:55;5.35;;;1.40;;
31764;SDS011;18338;53.240;8.798;2024-02-04T06:33:22;7.07;;;1.48;;
31764;SDS011;18338;53.240;8.798;2024-02-04T06:35:51;9.43;;;1.80;;
31764;SDS011;18338;53.240;8.798;2024-02-04T06:38:18;7.93;;;2.10;;
31764;SDS011;18338;53.240;8.798;2024-02-04T06:40:45;7.20;;;1.67;;
31764;SDS011;18338;53.240;8.798;2024-02-04T06:43:12;9.25;;;2.33;;
31764;SDS011;18338;53.240;8.798;2024-02-04T06:45:39;6.53;;;1.88;;
31764;SDS011;18338;53.240;8.798;2024-02-04T06:48:07;4.97;;;1.45;;
31764;SDS011;18338;53.240;8.798;2024-02-04T06:50:34;7.78;;;1.58;;
31764;SDS011;18338;53.240;8.798;2024-02-04T06:53:01;8.18;;;1.95;;
31764;SDS011;18338;53.240;8.798;2024-02-04T06:55:28;5.97;;;1.60;;
31764;SDS011;18338;53.240;8.798;2024-02-04T06:57:55;7.68;;;2.03;;
31764;SDS011;18338;53.240;8.798;2024-02-04T07:00:21;7.43;;;2.08;;
31764;SDS011;18338;53.240;8.798;2024-02-04T07:02:48;8.52;;;2.17;;
31764;SDS011;18338;53.240;8.798;2024-02-04T07:05:15;5.55;;;1.80;;
31764;SDS011;18338;53.240;8.798;2024-02-04T07:07:43;6.35;;;2.00;;
31764;SDS011;18338;53.240;8.798;2024-02-04T07:10:10;4.82;;;2.00;;
31764;SDS011;18338;53.240;8.798;2024-02-04T07:12:37;7.68;;;2.30;;
31764;SDS011;18338;53.240;8.798;2024-02-04T07:15:04;8.60;;;3.17;;
31764;SDS011;18338;53.240;8.798;2024-02-04T07:17:31;4.93;;;2.47;;
31764;SDS011;18338;53.240;8.798;2024-02-04T07:19:57;7.78;;;3.47;;
31764;SDS011;18338;53.240;8.798;2024-02-04T07:22:24;7.72;;;2.60;;
31764;SDS011;18338;53.240;8.798;2024-02-04T07:24:51;9.57;;;2.72;;
31764;SDS011;18338;53.240;8.798;2024-02-04T07:27:18;12.48;;;3.90;;
31764;SDS011;18338;53.240;8.798;2024-02-04T07:29:45;8.18;;;3.40;;
31764;SDS011;18338;53.240;8.798;2024-02-04T07:32:13;8.18;;;2.85;;
31764;SDS011;18338;53.240;8.798;2024-02-04T07:34:41;8.38;;;2.85;;
31764;SDS011;18338;53.240;8.798;2024-02-04T07:37:08;8.93;;;3.25;;
31764;SDS011;18338;53.240;8.798;2024-02-04T07:39:35;9.15;;;3.08;;
31764;SDS011;18338;53.240;8.798;2024-02-04T07:42:02;7.35;;;3.72;;
31764;SDS011;18338;53.240;8.798;2024-02-04T07:44:29;9.63;;;3.33;;
31764;SDS011;18338;53.240;8.798;2024-02-04T07:46:56;9.35;;;3.20;;
31764;SDS011;18338;53.240;8.798;2024-02-04T07:49:23;10.80;;;2.95;;
31764;SDS011;18338;53.240;8.798;2024-02-04T07:51:50;7.60;;;3.47;;
31764;SDS011;18338;53.240;8.798;2024-02-04T07:54:17;7.05;;;2.63;;
31764;SDS011;18338;53.240;8.798;2024-02-04T07:56:44;9.55;;;2.95;;
31764;SDS011;18338;53.240;8.798;2024-02-04T07:59:11;7.03;;;2.70;;
31764;SDS011;18338;53.240;8.798;2024-02-04T08:01:37;10.93;;;3.58;;
31764;SDS011;18338;53.240;8.798;2024-02-04T08:04:04;10.35;;;3.28;;
31764;SDS011;18338;53.240;8.798;2024-02-04T08:06:34;11.32;;;2.95;;
31764;SDS011;18338;53.240;8.798;2024-02-04T08:09:01;12.15;;;5.63;;
31764;SDS011;18338;53.240;8.798;2024-02-04T08:11:28;14.38;;;5.47;;
31764;SDS011;18338;53.240;8.798;2024-02-04T08:13:55;10.25;;;3.40;;
31764;SDS011;18338;53.240;8.798;2024-02-04T08:16:21;11.45;;;7.32;;
31764;SDS011;18338;53.240;8.798;2024-02-04T08:18:48;12.18;;;5.20;;
31764;SDS011;18338;53.240;8.798;2024-02-04T08:21:15;14.70;;;4.65;;
31764;SDS011;18338;53.240;8.798;2024-02-04T08:23:42;9.32;;;2.83;;
31764;SDS011;18338;53.240;8.798;2024-02-04T08:26:08;11.38;;;3.78;;
31764;SDS011;18338;53.240;8.798;2024-02-04T08:28:35;11.95;;;3.95;;
31764;SDS011;18338;53.240;8.798;2024-02-04T08:31:02;6.13;;;2.20;;
31764;SDS011;18338;53.240;8.798;2024-02-04T08:33:29;7.28;;;2.13;;
31764;SDS011;18338;53.240;8.798;2024-02-04T08:35:56;9.00;;;2.63;;
31764;SDS011;18338;53.240;8.798;2024-02-04T08:38:22;11.85;;;2.58;;
31764;SDS011;18338;53.240;8.798;2024-02-04T08:40:49;7.88;;;2.10;;
31764;SDS011;18338;53.240;8.798;2024-02-04T08:43:16;8.50;;;1.90;;
31764;SDS011;18338;53.240;8.798;2024-02-04T08:45:43;5.03;;;1.70;;
31764;SDS011;18338;53.240;8.798;2024-02-04T08:48:10;6.38;;;1.92;;
31764;SDS011;18338;53.240;8.798;2024-02-04T08:50:37;11.13;;;2.50;;
31764;SDS011;18338;53.240;8.798;2024-02-04T08:53:04;8.55;;;2.17;;
31764;SDS011;18338;53.240;8.798;2024-02-04T08:55:31;8.23;;;2.42;;
31764;SDS011;18338;53.240;8.798;2024-02-04T08:57:57;5.82;;;1.90;;
31764;SDS011;18338;53.240;8.798;2024-02-04T09:00:24;8.90;;;2.17;;
31764;SDS011;18338;53.240;8.798;2024-02-04T09:02:52;9.57;;;2.63;;
31764;SDS011;18338;53.240;8.798;2024-02-04T09:05:18;9.35;;;2.13;;
31764;SDS011;18338;53.240;8.798;2024-02-04T09:07:46;6.13;;;2.00;;
31764;SDS011;18338;53.240;8.798;2024-02-04T09:10:13;8.63;;;1.92;;
31764;SDS011;18338;53.240;8.798;2024-02-04T09:12:40;11.90;;;1.98;;
31764;SDS011;18338;53.240;8.798;2024-02-04T09:15:07;6.22;;;1.75;;
31764;SDS011;18338;53.240;8.798;2024-02-04T09:17:34;9.35;;;1.95;;
31764;SDS011;18338;53.240;8.798;2024-02-04T09:20:01;10.93;;;1.77;;
31764;SDS011;18338;53.240;8.798;2024-02-04T09:22:29;8.23;;;1.75;;
31764;SDS011;18338;53.240;8.798;2024-02-04T09:24:56;8.65;;;2.30;;
31764;SDS011;18338;53.240;8.798;2024-02-04T09:27:22;8.18;;;2.20;;
31764;SDS011;18338;53.240;8.798;2024-02-04T09:29:49;5.03;;;2.03;;
31764;SDS011;18338;53.240;8.798;2024-02-04T09:32:16;5.57;;;2.22;;
31764;SDS011;18338;53.240;8.798;2024-02-04T09:34:44;5.15;;;1.40;;
31764;SDS011;18338;53.240;8.798;2024-02-04T09:37:12;6.45;;;1.50;;
31764;SDS011;18338;53.240;8.798;2024-02-04T09:39:39;5.75;;;1.90;;
31764;SDS011;18338;53.240;8.798;2024-02-04T09:42:06;7.30;;;1.85;;
31764;SDS011;18338;53.240;8.798;2024-02-04T09:44:33;8.02;;;1.73;;
31764;SDS011;18338;53.240;8.798;2024-02-04T09:47:02;5.18;;;1.65;;
31764;SDS011;18338;53.240;8.798;2024-02-04T09:49:29;6.32;;;1.80;;
31764;SDS011;18338;53.240;8.798;2024-02-04T09:51:59;8.43;;;1.88;;
31764;SDS011;18338;53.240;8.798;2024-02-04T09:54:30;8.38;;;2.22;;
31764;SDS011;18338;53.240;8.798;2024-02-04T09:56:58;6.85;;;1.60;;
31764;SDS011;18338;53.240;8.798;2024-02-04T09:59:25;5.90;;;1.98;;
31764;SDS011;18338;53.240;8.798;2024-02-04T10:01:52;7.72;;;1.92;;
31764;SDS011;18338;53.240;8.798;2024-02-04T10:04:19;6.07;;;1.73;;
31764;SDS011;18338;53.240;8.798;2024-02-04T10:06:46;8.68;;;1.77;;
31764;SDS011;18338;53.240;8.798;2024-02-04T10:09:14;7.70;;;2.00;;
31764;SDS011;18338;53.240;8.798;2024-02-04T10:11:41;7.60;;;1.63;;
31764;SDS011;18338;53.240;8.798;2024-02-04T10:14:07;11.73;;;2.20;;
31764;SDS011;18338;53.240;8.798;2024-02-04T10:16:37;5.65;;;1.60;;
31764;SDS011;18338;53.240;8.798;2024-02-04T10:19:04;5.20;;;1.85;;
31764;SDS011;18338;53.240;8.798;2024-02-04T10:21:31;7.50;;;1.70;;
31764;SDS011;18338;53.240;8.798;2024-02-04T10:23:57;4.70;;;1.70;;
31764;SDS011;18338;53.240;8.798;2024-02-04T10:26:28;4.60;;;2.00;;
31764;SDS011;18338;53.240;8.798;2024-02-04T10:28:57;8.27;;;2.42;;
31764;SDS011;18338;53.240;8.798;2024-02-04T10:31:25;8.57;;;1.65;;
31764;SDS011;18338;53.240;8.798;2024-02-04T10:33:52;10.95;;;2.47;;
31764;SDS011;18338;53.240;8.798;2024-02-04T10:36:20;6.82;;;1.85;;
31764;SDS011;18338;53.240;8.798;2024-02-04T10:38:47;6.55;;;2.33;;
31764;SDS011;18338;53.240;8.798;2024-02-04T10:41:15;6.40;;;1.75;;
31764;SDS011;18338;53.240;8.798;2024-02-04T10:43:44;13.63;;;5.60;;
31764;SDS011;18338;53.240;8.798;2024-02-04T10:46:22;10.10;;;3.53;;
31764;SDS011;18338;53.240;8.798;2024-02-04T10:48:56;31.33;;;10.85;;
31764;SDS011;18338;53.240;8.798;2024-02-04T10:51:27;12.63;;;3.72;;
31764;SDS011;18338;53.240;8.798;2024-02-04T10:53:55;13.82;;;5.82;;
31764;SDS011;18338;53.240;8.798;2024-02-04T10:56:38;16.05;;;5.68;;
31764;SDS011;18338;53.240;8.798;2024-02-04T10:59:11;8.60;;;2.53;;
31764;SDS011;18338;53.240;8.798;2024-02-04T11:01:43;5.40;;;2.08;;
31764;SDS011;18338;53.240;8.798;2024-02-04T11:04:14;5.05;;;2.25;;
31764;SDS011;18338;53.240;8.798;2024-02-04T11:06:42;6.90;;;2.30;;
31764;SDS011;18338;53.240;8.798;2024-02-04T11:09:11;4.75;;;2.08;;
31764;SDS011;18338;53.240;8.798;2024-02-04T11:11:40;6.75;;;1.90;;
31764;SDS011;18338;53.240;8.798;2024-02-04T11:14:15;4.40;;;2.00;;
31764;SDS011;18338;53.240;8.798;2024-02-04T11:28:02;12.50;;;2.00;;
31764;SDS011;18338;53.240;8.798;2024-02-04T11:30:33;7.40;;;1.55;;
31764;SDS011;18338;53.240;8.798;2024-02-04T11:33:00;4.10;;;1.45;;
31764;SDS011;18338;53.240;8.798;2024-02-04T11:35:29;8.30;;;2.13;;
31764;SDS011;18338;53.240;8.798;2024-02-04T11:37:56;7.93;;;1.83;;
31764;SDS011;18338;53.240;8.798;2024-02-04T11:40:35;8.70;;;2.17;;
31764;SDS011;18338;53.240;8.798;2024-02-04T11:43:07;7.93;;;2.08;;
31764;SDS011;18338;53.240;8.798;2024-02-04T11:45:40;8.38;;;2.20;;
31764;SDS011;18338;53.240;8.798;2024-02-04T11:48:09;7.47;;;2.35;;
31764;SDS011;18338;53.240;8.798;2024-02-04T11:50:37;6.90;;;2.03;;
31764;SDS011;18338;53.240;8.798;2024-02-04T11:53:09;7.50;;;2.15;;
31764;SDS011;18338;53.240;8.798;2024-02-04T11:55:38;6.10;;;1.45;;
31764;SDS011;18338;53.240;8.798;2024-02-04T11:58:11;5.20;;;1.77;;
31764;SDS011;18338;53.240;8.798;2024-02-04T12:00:41;6.20;;;1.40;;
31764;SDS011;18338;53.240;8.798;2024-02-04T12:03:11;6.10;;;1.83;;
31764;SDS011;18338;53.240;8.798;2024-02-04T12:05:38;6.25;;;1.67;;
31764;SDS011;18338;53.240;8.798;2024-02-04T12:08:07;6.20;;;1.58;;
31764;SDS011;18338;53.240;8.798;2024-02-04T12:10:35;8.10;;;2.13;;
31764;SDS011;18338;53.240;8.798;2024-02-04T12:13:03;7.80;;;1.85;;
31764;SDS011;18338;53.240;8.798;2024-02-04T12:15:36;4.85;;;1.50;;
31764;SDS011;18338;53.240;8.798;2024-02-04T12:18:07;4.90;;;1.77;;
31764;SDS011;18338;53.240;8.798;2024-02-04T12:20:35;6.10;;;1.85;;
31764;SDS011;18338;53.240;8.798;2024-02-04T12:23:06;6.53;;;1.60;;
31764;SDS011;18338;53.240;8.798;2024-02-04T12:25:34;4.20;;;1.30;;
31764;SDS011;18338;53.240;8.798;2024-02-04T12:28:02;5.25;;;1.70;;
31764;SDS011;18338;53.240;8.798;2024-02-04T12:30:30;6.00;;;1.98;;
31764;SDS011;18338;53.240;8.798;2024-02-04T12:33:02;4.72;;;1.70;;
31764;SDS011;18338;53.240;8.798;2024-02-04T12:35:33;8.43;;;2.20;;
31764;SDS011;18338;53.240;8.798;2024-02-04T12:38:00;10.48;;;5.80;;
31764;SDS011;18338;53.240;8.798;2024-02-04T12:40:28;11.43;;;4.40;;
31764;SDS011;18338;53.240;8.798;2024-02-04T12:42:56;19.55;;;8.13;;
31764;SDS011;18338;53.240;8.798;2024-02-04T12:45:31;14.27;;;7.03;;
31764;SDS011;18338;53.240;8.798;2024-02-04T12:47:58;7.45;;;2.65;;
31764;SDS011;18338;53.240;8.798;2024-02-04T12:50:25;11.05;;;3.22;;
31764;SDS011;18338;53.240;8.798;2024-02-04T12:53:05;5.88;;;2.10;;
31764;SDS011;18338;53.240;8.798;2024-02-04T12:55:36;5.03;;;2.80;;
31764;SDS011;18338;53.240;8.798;2024-02-04T12:58:07;11.35;;;3.72;;
31764;SDS011;18338;53.240;8.798;2024-02-04T13:00:36;7.95;;;3.17;;
31764;SDS011;18338;53.240;8.798;2024-02-04T13:03:04;6.45;;;1.73;;
31764;SDS011;18338;53.240;8.798;2024-02-04T13:05:31;5.07;;;2.13;;
31764;SDS011;18338;53.240;8.798;2024-02-04T13:07:59;7.78;;;1.98;;
31764;SDS011;18338;53.240;8.798;2024-02-04T13:10:32;5.13;;;1.70;;
31764;SDS011;18338;53.240;8.798;2024-02-04T13:13:06;4.32;;;1.38;;
31764;SDS011;18338;53.240;8.798;2024-02-04T13:15:40;6.82;;;1.83;;
31764;SDS011;18338;53.240;8.798;2024-02-04T13:18:09;4.63;;;1.38;;
31764;SDS011;18338;53.240;8.798;2024-02-04T13:20:38;3.67;;;1.70;;
31764;SDS011;18338;53.240;8.798;2024-02-04T13:23:06;5.72;;;1.88;;
31764;SDS011;18338;53.240;8.798;2024-02-04T13:25:33;3.85;;;1.55;;
31764;SDS011;18338;53.240;8.798;2024-02-04T13:28:01;4.15;;;1.33;;
31764;SDS011;18338;53.240;8.798;2024-02-04T13:30:28;5.10;;;1.50;;
31764;SDS011;18338;53.240;8.798;2024-02-04T13:32:56;5.65;;;1.60;;
31764;SDS011;18338;53.240;8.798;2024-02-04T13:35:24;5.55;;;1.65;;
31764;SDS011;18338;53.240;8.798;2024-02-04T13:37:51;3.38;;;1.30;;
31764;SDS011;18338;53.240;8.798;2024-02-04T13:40:18;7.80;;;2.05;;
31764;SDS011;18338;53.240;8.798;2024-02-04T13:42:47;4.40;;;1.98;;
31764;SDS011;18338;53.240;8.798;2024-02-04T13:45:14;5.65;;;1.33;;
31764;SDS011;18338;53.240;8.798;2024-02-04T13:47:41;2.85;;;1.40;;
31764;SDS011;18338;53.240;8.798;2024-02-04T13:50:09;5.45;;;1.40;;
31764;SDS011;18338;53.240;8.798;2024-02-04T13:52:36;4.30;;;1.75;;
31764;SDS011;18338;53.240;8.798;2024-02-04T13:55:04;6.03;;;2.03;;
31764;SDS011;18338;53.240;8.798;2024-02-04T13:57:34;4.43;;;1.88;;
31764;SDS011;18338;53.240;8.798;2024-02-04T14:00:02;6.03;;;1.75;;
31764;SDS011;18338;53.240;8.798;2024-02-04T14:02:31;6.70;;;1.45;;
31764;SDS011;18338;53.240;8.798;2024-02-04T14:04:58;7.28;;;1.50;;
31764;SDS011;18338;53.240;8.798;2024-02-04T14:07:26;8.93;;;1.77;;
31764;SDS011;18338;53.240;8.798;2024-02-04T14:09:54;5.90;;;1.90;;
31764;SDS011;18338;53.240;8.798;2024-02-04T14:12:21;8.60;;;2.20;;
31764;SDS011;18338;53.240;8.798;2024-02-04T14:14:47;5.13;;;1.52;;
31764;SDS011;18338;53.240;8.798;2024-02-04T14:17:14;4.53;;;1.60;;
31764;SDS011;18338;53.240;8.798;2024-02-04T14:19:41;4.85;;;1.65;;
31764;SDS011;18338;53.240;8.798;2024-02-04T14:22:08;6.63;;;1.20;;
31764;SDS011;18338;53.240;8.798;2024-02-04T14:24:35;4.60;;;1.25;;
31764;SDS011;18338;53.240;8.798;2024-02-04T14:27:01;6.07;;;1.45;;
31764;SDS011;18338;53.240;8.798;2024-02-04T14:29:29;6.68;;;1.77;;
31764;SDS011;18338;53.240;8.798;2024-02-04T14:31:55;5.30;;;1.63;;
31764;SDS011;18338;53.240;8.798;2024-02-04T14:34:24;5.25;;;1.92;;
31764;SDS011;18338;53.240;8.798;2024-02-04T14:36:51;7.68;;;1.75;;
31764;SDS011;18338;53.240;8.798;2024-02-04T14:39:19;6.38;;;1.70;;
31764;SDS011;18338;53.240;8.798;2024-02-04T14:41:45;8.35;;;1.95;;
31764;SDS011;18338;53.240;8.798;2024-02-04T14:44:12;7.75;;;1.83;;
31764;SDS011;18338;53.240;8.798;2024-02-04T14:46:39;8.02;;;1.83;;
31764;SDS011;18338;53.240;8.798;2024-02-04T14:49:06;6.75;;;1.77;;
31764;SDS011;18338;53.240;8.798;2024-02-04T14:51:33;10.13;;;2.58;;
31764;SDS011;18338;53.240;8.798;2024-02-04T14:54:01;4.07;;;1.70;;
31764;SDS011;18338;53.240;8.798;2024-02-04T14:56:28;6.20;;;1.83;;
31764;SDS011;18338;53.240;8.798;2024-02-04T14:58:55;8.30;;;2.60;;
31764;SDS011;18338;53.240;8.798;2024-02-04T15:01:22;4.35;;;1.88;;